Time;durP1;ratioP1;P1;durP2;ratioP2;P2;SDS_P1;SDS_P2;PMS_P1;PMS_P2;Temp;Humidity;BMP_temperature;BMP_pressure;BME280_temperature;BME280_humidity;BME280_pressure;Samples;Min_cycle;Max_cycle;Signal;HPM_P1;HPM_P2
2023/04/08 00:02:22;;;;;;;22.30;15.08;;;;;;;7.33;72.91;100220.03;1766624;80;20973;-61
2023/04/08 00:04:49;;;;;;;22.07;14.00;;;;;;;7.34;72.81;100234.75;1757991;80;21572;-61
2023/04/08 00:07:15;;;;;;;23.92;15.58;;;;;;;7.18;71.66;100236.03;1784054;80;21441;-61
2023/04/08 00:09:41;;;;;;;22.45;15.25;;;;;;;6.92;72.48;100241.87;1762730;80;21014;-61
2023/04/08 00:12:07;;;;;;;24.95;14.75;;;;;;;6.94;72.92;100238.31;1763027;80;21049;-61
2023/04/08 00:14:34;;;;;;;22.30;14.73;;;;;;;7.00;73.00;100241.66;1765533;80;21058;-61
2023/04/08 00:17:00;;;;;;;21.40;14.85;;;;;;;7.05;73.18;100234.62;1762930;80;20994;-61
2023/04/08 00:19:26;;;;;;;19.67;14.30;;;;;;;7.09;73.17;100238.86;1763071;80;20974;-61
2023/04/08 00:21:53;;;;;;;24.37;15.25;;;;;;;7.11;73.12;100242.25;1765879;80;21022;-61
2023/04/08 00:24:19;;;;;;;19.87;14.37;;;;;;;7.11;73.13;100229.27;1789303;80;21143;-61
2023/04/08 00:26:45;;;;;;;17.23;12.80;;;;;;;7.13;73.16;100236.13;1761384;80;21087;-61
2023/04/08 00:29:12;;;;;;;19.80;13.15;;;;;;;7.11;73.12;100233.16;1757898;79;20939;-61
2023/04/08 00:31:40;;;;;;;21.50;13.80;;;;;;;7.12;73.28;100228.39;1742039;80;20997;-61
2023/04/08 00:34:06;;;;;;;21.52;13.50;;;;;;;7.14;73.42;100226.59;1764920;79;21025;-61
2023/04/08 00:36:34;;;;;;;20.75;13.68;;;;;;;7.18;73.34;100225.64;1783152;80;21023;-61
2023/04/08 00:39:03;;;;;;;21.95;13.55;;;;;;;7.19;73.28;100224.73;1762054;80;21420;-61
2023/04/08 00:41:29;;;;;;;20.77;13.08;;;;;;;7.18;73.31;100225.64;1770738;80;20977;-61
2023/04/08 00:43:56;;;;;;;23.05;13.60;;;;;;;7.25;73.55;100234.11;1762264;81;20995;-61
2023/04/08 00:46:22;;;;;;;19.77;12.75;;;;;;;7.20;73.06;100236.84;1763951;80;20975;-62
2023/04/08 00:48:48;;;;;;;19.70;13.25;;;;;;;7.21;73.37;100246.34;1763884;80;21499;-61
2023/04/08 00:51:16;;;;;;;19.17;13.08;;;;;;;7.26;73.55;100240.59;1742908;80;21018;-61
2023/04/08 00:53:43;;;;;;;18.50;12.78;;;;;;;7.26;73.32;100244.48;1787695;80;21123;-61
2023/04/08 00:56:09;;;;;;;18.45;12.68;;;;;;;7.27;73.45;100237.53;1763580;80;20960;-61
2023/04/08 00:58:36;;;;;;;20.20;12.80;;;;;;;7.30;73.57;100234.86;1770400;79;21006;-61
2023/04/08 01:01:14;;;;;;;19.95;12.82;;;;;;;7.33;73.50;100235.62;1743194;80;21505;-62
2023/04/08 01:03:59;;;;;;;19.60;13.72;;;;;;;7.33;73.48;100234.32;1764216;80;21565;-61
2023/04/08 01:06:35;;;;;;;19.50;12.47;;;;;;;7.37;73.68;100237.27;1691563;83;21043;-61
2023/04/08 01:09:05;;;;;;;19.02;12.50;;;;;;;7.42;73.56;100233.68;1689772;83;20969;-61
2023/04/08 01:11:33;;;;;;;15.23;12.20;;;;;;;7.38;73.35;100238.96;1689734;84;20973;-60
2023/04/08 01:14:04;;;;;;;18.17;12.35;;;;;;;7.38;73.53;100236.81;1692141;83;20935;-61
2023/04/08 01:16:30;;;;;;;16.12;11.63;;;;;;;7.36;73.60;100235.54;1685796;83;21083;-61
2023/04/08 01:18:58;;;;;;;16.00;11.63;;;;;;;7.35;73.50;100233.84;1685425;83;20980;-61
2023/04/08 01:21:27;;;;;;;19.52;12.43;;;;;;;7.36;73.64;100235.54;1687585;83;21089;-61
2023/04/08 01:24:01;;;;;;;18.32;12.07;;;;;;;7.22;73.11;100240.23;1722230;82;21678;-61
2023/04/08 01:26:29;;;;;;;20.15;12.40;;;;;;;7.15;73.52;100241.30;1683717;83;21052;-61
2023/04/08 01:28:58;;;;;;;18.65;12.53;;;;;;;7.17;73.74;100239.53;1690391;83;20973;-61
2023/04/08 01:31:26;;;;;;;17.52;12.68;;;;;;;7.19;73.83;100245.52;1704804;82;20956;-61
2023/04/08 01:33:54;;;;;;;19.15;11.75;;;;;;;7.22;73.85;100246.73;1675067;83;21082;-61
2023/04/08 01:36:22;;;;;;;18.85;12.80;;;;;;;7.21;73.78;100246.34;1699604;82;21087;-61
2023/04/08 01:38:49;;;;;;;21.30;12.63;;;;;;;7.23;73.92;100252.36;1679113;83;20990;-61
2023/04/08 01:41:17;;;;;;;;;;;;;;;7.23;73.79;100250.20;1683709;83;21529;-61
2023/04/08 01:43:45;;;;;;;19.67;12.53;;;;;;;7.23;74.05;100254.11;1746585;79;20183;-61
2023/04/08 01:46:12;;;;;;;18.98;12.20;;;;;;;7.19;73.66;100263.69;1758402;79;21104;-61
2023/04/08 01:48:39;;;;;;;;;;;;;;;7.15;73.89;100255.58;1767990;79;21023;-61
2023/04/08 01:51:06;;;;;;;17.15;12.82;;;;;;;7.16;74.16;100259.42;1763121;79;20174;-61
2023/04/08 01:53:33;;;;;;;21.35;13.98;;;;;;;7.17;73.92;100252.52;1758781;80;20953;-61
2023/04/08 01:56:06;;;;;;;19.70;13.75;;;;;;;7.14;74.04;100259.05;1763856;79;21096;-61
2023/04/08 01:58:38;;;;;;;20.37;13.75;;;;;;;7.16;74.08;100266.37;1757227;80;21016;-61
2023/04/08 02:01:11;;;;;;;22.93;13.60;;;;;;;7.17;74.03;100260.30;1766540;80;20962;-61
2023/04/08 02:03:40;;;;;;;20.57;14.65;;;;;;;7.13;74.06;100265.99;1786930;80;20985;-61
2023/04/08 02:06:06;;;;;;;23.77;16.15;;;;;;;7.12;74.07;100262.16;1755468;80;21543;-61
2023/04/08 02:08:35;;;;;;;21.02;15.10;;;;;;;7.10;74.10;100269.97;1764472;80;21529;-61
2023/04/08 02:11:02;;;;;;;19.55;13.45;;;;;;;7.08;74.10;100270.89;1765560;80;21005;-61
2023/04/08 02:13:30;;;;;;;21.73;18.00;;;;;;;7.05;74.11;100278.76;1763022;80;20951;-61
2023/04/08 02:16:00;;;;;;;22.85;18.67;;;;;;;7.01;74.04;100282.33;1761173;80;21425;-61
2023/04/08 02:18:27;;;;;;;22.58;18.17;;;;;;;6.95;74.14;100271.20;1746417;80;21536;-61
2023/04/08 02:21:03;;;;;;;22.48;15.25;;;;;;;6.97;74.35;100274.19;1757648;80;20948;-61
2023/04/08 02:23:37;;;;;;;23.10;13.60;;;;;;;6.99;74.35;100271.13;1778490;80;21021;-61
2023/04/08 02:26:03;;;;;;;18.25;13.10;;;;;;;6.93;74.32;100272.13;1755040;80;21052;-62
2023/04/08 02:28:31;;;;;;;17.73;13.53;;;;;;;6.93;74.47;100274.27;1762689;80;21604;-61
2023/04/08 02:31:00;;;;;;;17.55;12.15;;;;;;;6.93;74.43;100270.38;1763118;79;21489;-61
2023/04/08 02:33:27;;;;;;;23.57;12.53;;;;;;;6.92;74.37;100273.87;1763540;80;21002;-61
2023/04/08 02:35:54;;;;;;;;;;;;;;;6.93;74.43;100283.35;1764995;80;21053;-61
2023/04/08 02:38:22;;;;;;;15.45;11.60;;;;;;;6.90;74.57;100283.42;1763806;79;20503;-62
2023/04/08 02:40:50;;;;;;;18.25;12.33;;;;;;;6.87;74.47;100287.39;1764253;80;21018;-61
2023/04/08 02:43:16;;;;;;;19.42;12.45;;;;;;;6.82;74.40;100290.53;1764241;80;20982;-61
2023/04/08 02:45:43;;;;;;;19.33;13.17;;;;;;;6.80;74.57;100296.19;1760830;80;21594;-61
2023/04/08 02:48:11;;;;;;;16.12;12.37;;;;;;;6.82;74.64;100293.12;1739756;80;21192;-61
2023/04/08 02:50:38;;;;;;;17.95;12.45;;;;;;;6.82;74.59;100295.73;1761187;80;20978;-61
2023/04/08 02:53:05;;;;;;;21.40;12.68;;;;;;;6.86;74.71;100303.87;1760658;80;20998;-61
2023/04/08 02:55:31;;;;;;;16.77;11.68;;;;;;;6.88;74.65;100292.13;1763304;80;21038;-61
2023/04/08 02:57:57;;;;;;;18.50;12.47;;;;;;;6.92;74.83;100293.79;1761086;80;21212;-61
2023/04/08 03:00:23;;;;;;;15.90;11.25;;;;;;;6.92;74.83;100293.34;1761241;80;21484;-61
2023/04/08 03:02:50;;;;;;;18.10;11.75;;;;;;;6.93;74.70;100296.33;1760710;80;21014;-61
2023/04/08 03:05:16;;;;;;;17.77;11.55;;;;;;;6.91;74.60;100296.80;1761194;80;21056;-61
2023/04/08 03:07:42;;;;;;;17.07;11.48;;;;;;;6.89;74.69;100301.20;1763422;80;20987;-61
2023/04/08 03:10:09;;;;;;;18.42;11.10;;;;;;;6.87;74.75;100301.67;1761071;79;20967;-61
2023/04/08 03:12:36;;;;;;;22.65;12.18;;;;;;;6.87;74.75;100304.27;1762750;80;20970;-61
2023/04/08 03:15:02;;;;;;;19.15;12.90;;;;;;;6.86;74.75;100302.57;1760364;80;21021;-61
2023/04/08 03:17:31;;;;;;;20.48;14.50;;;;;;;6.83;74.60;100306.50;1759978;80;21057;-61
2023/04/08 03:19:57;;;;;;;20.32;15.20;;;;;;;6.81;74.87;100303.56;1759388;80;21566;-61
2023/04/08 03:22:23;;;;;;;17.05;12.15;;;;;;;6.81;74.82;100312.65;1760979;79;20992;-61
2023/04/08 03:24:49;;;;;;;19.73;13.28;;;;;;;6.80;74.95;100313.06;1761714;80;21019;-61
2023/04/08 03:27:16;;;;;;;20.95;14.15;;;;;;;6.83;74.99;100315.59;1763274;80;20986;-61
2023/04/08 03:29:42;;;;;;;22.87;13.95;;;;;;;6.87;75.01;100313.80;1764659;80;21499;-61
2023/04/08 03:32:08;;;;;;;18.50;12.90;;;;;;;6.86;74.94;100310.36;1765607;80;21539;-61
2023/04/08 03:34:35;;;;;;;17.85;12.60;;;;;;;6.85;74.90;100311.23;1766245;80;21458;-62
2023/04/08 03:37:01;;;;;;;16.97;12.30;;;;;;;6.86;74.99;100314.67;1768106;80;21048;-61
2023/04/08 03:39:27;;;;;;;19.02;13.05;;;;;;;6.86;75.02;100309.06;1764733;80;20986;-62
2023/04/08 03:41:54;;;;;;;18.70;12.45;;;;;;;6.87;74.99;100313.35;1764738;80;21475;-61
2023/04/08 03:44:20;;;;;;;18.10;11.22;;;;;;;6.87;74.96;100319.84;1766247;80;20994;-61
2023/04/08 03:46:51;;;;;;;19.17;11.95;;;;;;;6.85;74.93;100316.42;1767184;80;21009;-61
2023/04/08 03:49:15;;;;;;;20.65;11.53;;;;;;;6.91;75.26;100324.52;1760787;80;21022;-61
2023/04/08 03:51:41;;;;;;;17.02;13.18;;;;;;;6.92;75.00;100315.41;1764602;80;21060;-61
2023/04/08 03:54:07;;;;;;;21.12;11.90;;;;;;;6.87;74.98;100315.95;1770425;80;20971;-61
2023/04/08 03:56:34;;;;;;;18.80;11.93;;;;;;;6.87;75.03;100322.89;1766767;80;21079;-61
2023/04/08 03:59:00;;;;;;;23.60;14.53;;;;;;;6.85;75.00;100320.77;1763413;80;21410;-61
2023/04/08 04:01:26;;;;;;;18.15;12.75;;;;;;;6.82;75.00;100332.06;1767952;80;21631;-61
2023/04/08 04:03:52;;;;;;;20.65;12.98;;;;;;;6.73;74.90;100334.88;1765484;80;21439;-61
2023/04/08 04:06:19;;;;;;;19.30;13.32;;;;;;;6.68;75.01;100334.11;1762750;80;21016;-61
2023/04/08 04:08:45;;;;;;;18.95;13.83;;;;;;;6.64;75.04;100341.56;1763906;80;20986;-61
2023/04/08 04:11:13;;;;;;;20.02;13.08;;;;;;;6.57;74.93;100336.08;1770140;80;20986;-61
2023/04/08 04:13:39;;;;;;;20.57;14.00;;;;;;;6.53;74.96;100343.53;1761855;80;21540;-61
2023/04/08 04:16:06;;;;;;;19.98;14.00;;;;;;;6.46;75.05;100342.33;1766440;80;21560;-61
2023/04/08 04:18:32;;;;;;;24.37;15.10;;;;;;;6.44;75.16;100342.83;1762505;80;20972;-62
2023/04/08 04:20:58;;;;;;;19.55;14.07;;;;;;;6.42;75.14;100344.59;1764426;80;20948;-61
2023/04/08 04:23:26;;;;;;;24.70;15.60;;;;;;;6.34;74.99;100349.08;1740978;80;21294;-61
2023/04/08 04:25:53;;;;;;;24.57;16.20;;;;;;;6.29;75.03;100347.02;1764084;80;21046;-61
2023/04/08 04:28:20;;;;;;;21.50;16.12;;;;;;;6.28;75.24;100350.50;1765276;80;21540;-61
2023/04/08 04:30:46;;;;;;;24.77;16.95;;;;;;;6.29;75.36;100352.20;1761195;80;21569;-61
2023/04/08 04:33:12;;;;;;;21.70;15.55;;;;;;;6.36;75.41;100360.70;1758634;80;21720;-61
2023/04/08 04:35:40;;;;;;;25.90;18.40;;;;;;;6.36;75.40;100358.98;1766601;79;20986;-61
2023/04/08 04:38:11;;;;;;;27.87;18.20;;;;;;;6.40;75.50;100365.81;1762987;80;21082;-61
2023/04/08 04:40:38;;;;;;;24.70;17.55;;;;;;;6.47;75.43;100370.45;1763254;79;21094;-61
2023/04/08 04:43:05;;;;;;;24.27;17.10;;;;;;;6.51;75.49;100363.00;1765267;80;20986;-61
2023/04/08 04:45:31;;;;;;;29.37;18.05;;;;;;;6.54;75.52;100366.83;1762709;80;21597;-61
2023/04/08 04:47:58;;;;;;;25.50;16.82;;;;;;;6.59;75.50;100365.45;1764326;80;20923;-61
2023/04/08 04:50:24;;;;;;;29.00;19.05;;;;;;;6.67;75.65;100376.53;1760606;80;21001;-61
2023/04/08 04:52:50;;;;;;;21.27;15.78;;;;;;;6.74;75.65;100370.30;1763051;80;21435;-61
2023/04/08 04:55:17;;;;;;;24.90;17.60;;;;;;;6.74;75.61;100374.20;1762666;80;21070;-61
2023/04/08 04:57:43;;;;;;;23.55;16.12;;;;;;;6.85;75.64;100376.13;1762475;80;21047;-61
2023/04/08 05:00:11;;;;;;;25.00;17.23;;;;;;;6.89;75.57;100380.38;1757052;80;21578;-61
2023/04/08 05:02:36;;;;;;;;;;;;;;;6.93;75.67;100382.00;1770195;79;20935;-61
2023/04/08 05:05:04;;;;;;;25.55;17.67;;;;;;;6.97;75.71;100380.19;1765461;79;20107;-61
2023/04/08 05:07:32;;;;;;;;;;;;;;;7.09;76.05;100386.88;1766433;80;20975;-62
2023/04/08 05:10:02;;;;;;;25.57;17.00;;;;;;;7.21;76.06;100378.80;1728121;80;20102;-62
2023/04/08 05:12:28;;;;;;;21.62;15.23;;;;;;;7.30;75.93;100383.77;1757065;80;21021;-61
2023/04/08 05:15:09;;;;;;;22.02;15.05;;;;;;;7.36;75.82;100379.72;1761959;80;20917;-62
2023/04/08 05:17:32;;;;;;;20.17;14.70;;;;;;;7.44;75.94;100380.00;1762562;80;21063;-62
2023/04/08 05:19:58;;;;;;;20.92;16.07;;;;;;;7.55;75.99;100385.80;1764170;80;20988;-62
2023/04/08 05:22:25;;;;;;;23.30;16.10;;;;;;;7.62;75.88;100378.27;1760282;80;21011;-61
2023/04/08 05:24:51;;;;;;;22.10;15.45;;;;;;;7.61;75.72;100380.44;1761398;80;21078;-62
2023/04/08 05:27:17;;;;;;;27.02;14.93;;;;;;;7.69;75.93;100386.30;1763162;80;21685;-61
2023/04/08 05:29:43;;;;;;;19.50;14.33;;;;;;;7.76;75.87;100385.27;1768104;80;20943;-62
2023/04/08 05:32:10;;;;;;;19.02;13.85;;;;;;;7.82;75.97;100385.11;1772047;80;21015;-62
2023/04/08 05:34:36;;;;;;;16.10;13.13;;;;;;;7.93;76.03;100392.65;1762319;80;20935;-62
2023/04/08 05:37:02;;;;;;;22.77;14.40;;;;;;;8.02;75.97;100383.75;1764366;80;20980;-62
2023/04/08 05:39:28;;;;;;;18.12;13.18;;;;;;;8.08;75.96;100388.78;1766016;80;21003;-62
2023/04/08 05:41:55;;;;;;;19.80;13.20;;;;;;;8.15;75.92;100385.14;1766786;80;21049;-62
2023/04/08 05:44:21;;;;;;;26.90;16.12;;;;;;;8.24;76.10;100384.88;1763236;80;20979;-62
2023/04/08 05:46:47;;;;;;;28.60;19.27;;;;;;;8.34;76.10;100384.62;1768173;80;21068;-62
2023/04/08 05:49:16;;;;;;;26.07;18.55;;;;;;;8.50;76.29;100387.25;1767956;80;21057;-62
2023/04/08 05:51:42;;;;;;;24.30;16.35;;;;;;;8.65;76.29;100390.70;1766990;80;20971;-62
2023/04/08 05:54:12;;;;;;;24.60;16.87;;;;;;;8.83;76.13;100396.30;1764198;80;20935;-62
2023/04/08 05:56:36;;;;;;;23.10;16.17;;;;;;;8.92;76.17;100394.72;1759754;80;20962;-61
2023/04/08 05:59:02;;;;;;;21.25;15.63;;;;;;;9.07;76.24;100398.15;1764096;80;20994;-61
2023/04/08 06:01:33;;;;;;;27.95;16.73;;;;;;;9.18;76.32;100390.86;1766429;79;21398;-62
2023/04/08 06:04:00;;;;;;;25.57;15.43;;;;;;;9.34;76.18;100393.84;1763117;80;21516;-62
2023/04/08 06:06:32;;;;;;;23.83;16.45;;;;;;;9.50;76.24;100403.80;1767122;80;21014;-62
2023/04/08 06:08:55;;;;;;;23.52;16.35;;;;;;;9.64;76.23;100405.06;1762047;80;20999;-61
2023/04/08 06:11:21;;;;;;;26.17;16.95;;;;;;;9.78;76.30;100409.82;1763869;80;21074;-61
2023/04/08 06:13:48;;;;;;;27.10;17.27;;;;;;;9.94;76.27;100411.48;1783131;78;21382;-62
2023/04/08 06:16:21;;;;;;;30.70;19.55;;;;;;;10.02;76.32;100402.91;1784704;80;21551;-61
2023/04/08 06:18:48;;;;;;;25.85;18.42;;;;;;;10.23;76.30;100410.92;1760417;80;21051;-62
2023/04/08 06:21:14;;;;;;;28.00;17.50;;;;;;;10.39;76.39;100414.74;1762241;80;21018;-62
2023/04/08 06:23:41;;;;;;;27.73;18.73;;;;;;;10.59;76.62;100419.70;1763983;80;21017;-61
2023/04/08 06:26:08;;;;;;;26.77;17.63;;;;;;;10.74;76.36;100424.36;1766731;80;20953;-62
2023/04/08 06:28:34;;;;;;;22.00;15.40;;;;;;;10.91;76.54;100425.03;1762747;80;21000;-62
2023/04/08 06:31:01;;;;;;;18.92;11.80;;;;;;;11.12;76.50;100429.92;1764017;80;21029;-62
2023/04/08 06:33:27;;;;;;;21.05;14.15;;;;;;;11.30;76.37;100430.50;1766815;80;21038;-62
2023/04/08 06:36:06;;;;;;;18.15;12.03;;;;;;;11.51;76.30;100424.02;1780526;80;21844;-62
2023/04/08 06:38:33;;;;;;;22.27;15.35;;;;;;;11.65;76.05;100425.66;1788950;80;21010;-62
2023/04/08 06:41:07;;;;;;;14.18;12.33;;;;;;;11.65;76.05;100425.66;1759199;80;20919;-63
2023/04/08 06:43:39;;;;;;;19.98;13.62;;;;;;;11.91;76.20;100447.31;1766238;80;21497;-62
2023/04/08 06:46:03;;;;;;;16.12;11.80;;;;;;;12.07;76.10;100453.59;1768491;79;21014;-62
2023/04/08 06:48:29;;;;;;;17.60;11.87;;;;;;;12.27;76.25;100458.86;1758643;80;21008;-62
2023/04/08 06:50:59;;;;;;;16.00;11.43;;;;;;;12.40;76.09;100460.94;1781530;80;21549;-64
2023/04/08 06:53:31;;;;;;;13.83;10.58;;;;;;;12.54;76.04;100459.88;1782046;78;21029;-61
2023/04/08 06:55:58;;;;;;;14.05;10.23;;;;;;;12.69;75.85;100459.69;1761032;80;20957;-61
2023/04/08 06:58:24;;;;;;;14.47;11.13;;;;;;;12.68;75.43;100466.67;1760040;80;21494;-60
2023/04/08 07:00:52;;;;;;;17.00;10.38;;;;;;;12.72;75.20;100465.64;1766142;79;21628;-63
2023/04/08 07:03:18;;;;;;;12.47;9.28;;;;;;;12.80;75.19;100457.87;1759159;80;21542;-62
2023/04/08 07:05:45;;;;;;;15.00;9.45;;;;;;;12.70;74.60;100464.00;1763119;80;21527;-60
2023/04/08 07:08:11;;;;;;;10.85;9.25;;;;;;;12.61;74.63;100463.95;1761584;80;21071;-63
2023/04/08 07:10:37;;;;;;;11.33;8.90;;;;;;;12.53;74.44;100469.98;1763537;80;20923;-62
2023/04/08 07:13:04;;;;;;;11.95;9.88;;;;;;;12.54;74.89;100465.13;1760114;80;21007;-63
2023/04/08 07:15:30;;;;;;;12.03;9.00;;;;;;;12.61;74.88;100469.19;1765773;80;20978;-62
2023/04/08 07:18:00;;;;;;;12.43;9.10;;;;;;;12.68;74.95;100469.30;1764807;80;20986;-63
2023/04/08 07:20:26;;;;;;;12.93;8.63;;;;;;;12.72;74.85;100476.12;1761684;80;20974;-61
2023/04/08 07:22:53;;;;;;;13.15;9.75;;;;;;;12.83;74.88;100472.19;1764839;80;21553;-62
2023/04/08 07:25:20;;;;;;;11.68;9.48;;;;;;;13.03;74.97;100477.37;1770402;80;20935;-62
2023/04/08 07:27:46;;;;;;;12.00;9.20;;;;;;;13.13;74.34;100476.02;1767105;80;21050;-62
2023/04/08 07:30:13;;;;;;;11.60;9.38;;;;;;;13.23;74.41;100478.23;1765528;80;21568;-63
2023/04/08 07:32:39;;;;;;;14.00;10.00;;;;;;;13.20;74.20;100477.44;1767264;80;20990;-62
2023/04/08 07:35:09;;;;;;;11.90;9.78;;;;;;;13.36;74.40;100474.13;1763325;80;21044;-62
2023/04/08 07:37:36;;;;;;;12.75;8.50;;;;;;;13.31;73.78;100478.77;1764306;80;21018;-62
2023/04/08 07:40:04;;;;;;;10.98;9.48;;;;;;;13.32;73.69;100475.20;1766074;80;21069;-62
2023/04/08 07:42:31;;;;;;;14.03;9.95;;;;;;;13.31;73.86;100480.08;1767197;80;22074;-62
2023/04/08 07:44:59;;;;;;;12.77;10.20;;;;;;;13.30;73.68;100480.98;1768212;79;20955;-62
2023/04/08 07:47:29;;;;;;;11.75;9.00;;;;;;;13.26;73.49;100484.67;1764513;80;21434;-61
2023/04/08 07:49:58;;;;;;;12.80;9.28;;;;;;;13.36;73.34;100492.48;1761999;80;21463;-62
2023/04/08 07:52:28;;;;;;;13.88;9.93;;;;;;;13.45;73.25;100484.21;1759740;80;20990;-62
2023/04/08 07:54:54;;;;;;;12.40;9.58;;;;;;;13.49;73.29;100487.06;1762524;80;22173;-61
2023/04/08 07:57:20;;;;;;;12.78;9.50;;;;;;;13.48;72.86;100489.31;1764047;80;21101;-61
2023/04/08 07:59:48;;;;;;;13.43;9.43;;;;;;;13.42;72.36;100484.36;1730429;80;21039;-61
2023/04/08 08:02:15;;;;;;;12.50;9.57;;;;;;;13.21;72.18;100493.56;1766861;80;20955;-61
2023/04/08 08:04:41;;;;;;;12.05;9.78;;;;;;;13.20;72.59;100495.80;1763323;80;20943;-61
2023/04/08 08:07:07;;;;;;;12.05;8.73;;;;;;;13.33;72.66;100487.39;1764946;80;21046;-60
2023/04/08 08:09:34;;;;;;;12.15;10.10;;;;;;;13.36;72.17;100492.48;1760921;80;21428;-61
2023/04/08 08:12:00;;;;;;;15.70;9.70;;;;;;;13.32;71.89;100493.56;1761665;80;21471;-61
2023/04/08 08:14:26;;;;;;;9.48;8.40;;;;;;;13.32;71.99;100498.81;1764809;80;21081;-61
2023/04/08 08:16:53;;;;;;;12.70;9.63;;;;;;;13.34;71.94;100502.23;1763399;79;21132;-60
2023/04/08 08:19:22;;;;;;;11.03;8.95;;;;;;;13.37;71.82;100502.08;1765167;80;21022;-60
2023/04/08 08:21:48;;;;;;;12.15;9.08;;;;;;;13.36;71.84;100506.91;1765086;80;22171;-60
2023/04/08 08:24:15;;;;;;;10.95;9.15;;;;;;;13.40;71.72;100504.09;1762630;80;21654;-60
2023/04/08 08:26:44;;;;;;;11.88;8.33;;;;;;;13.40;71.72;100509.80;1765715;79;21017;-60
2023/04/08 08:29:10;;;;;;;10.63;8.50;;;;;;;13.30;71.64;100487.53;1761735;80;21060;-62
2023/04/08 08:31:36;;;;;;;9.48;8.53;;;;;;;13.33;71.20;100505.75;1761777;80;21102;-61
2023/04/08 08:34:03;;;;;;;10.45;8.93;;;;;;;13.23;70.90;100518.87;1752047;80;20975;-61
2023/04/08 08:36:35;;;;;;;10.63;9.28;;;;;;;13.15;70.99;100522.69;1760710;80;21000;-61
2023/04/08 08:38:59;;;;;;;9.95;8.00;;;;;;;13.10;70.75;100518.11;1756869;80;21069;-60
2023/04/08 08:41:25;;;;;;;11.90;8.98;;;;;;;13.03;70.73;100523.72;1759231;80;21049;-61
2023/04/08 08:43:53;;;;;;;11.00;8.83;;;;;;;12.94;70.53;100520.58;1763333;80;21569;-61
2023/04/08 08:46:19;;;;;;;12.63;8.75;;;;;;;12.90;71.02;100516.38;1760770;80;21002;-60
2023/04/08 08:48:45;;;;;;;11.43;8.33;;;;;;;12.93;71.13;100521.48;1755121;80;21578;-61
2023/04/08 08:51:13;;;;;;;12.30;8.15;;;;;;;12.95;70.85;100529.29;1757115;80;21057;-61
2023/04/08 08:53:44;;;;;;;10.80;8.43;;;;;;;12.93;71.01;100528.50;1762674;80;21592;-61
2023/04/08 08:56:08;;;;;;;12.82;8.93;;;;;;;13.00;70.88;100529.94;1759652;80;21024;-61
2023/04/08 08:58:34;;;;;;;10.95;8.38;;;;;;;13.01;70.80;100529.02;1762263;80;21107;-61
2023/04/08 09:01:00;;;;;;;10.35;9.23;;;;;;;13.01;70.79;100531.63;1762947;79;21395;-61
2023/04/08 09:03:28;;;;;;;12.35;9.58;;;;;;;13.06;70.78;100529.66;1759383;80;21473;-61
2023/04/08 09:05:59;;;;;;;11.57;8.58;;;;;;;13.13;70.66;100531.08;1760467;80;21002;-60
2023/04/08 09:08:34;;;;;;;11.45;8.60;;;;;;;13.23;70.72;100533.30;1758483;80;21020;-60
2023/04/08 09:11:18;;;;;;;9.43;8.28;;;;;;;13.34;70.67;100539.79;1761818;80;21538;-61
2023/04/08 09:13:46;;;;;;;9.93;8.63;;;;;;;13.49;70.73;100538.22;1762841;80;20986;-61
2023/04/08 09:16:16;;;;;;;11.57;9.10;;;;;;;13.67;70.60;100536.53;1735326;80;21043;-60
2023/04/08 09:18:44;;;;;;;12.93;9.40;;;;;;;13.93;70.72;100541.84;1763024;80;21149;-61
2023/04/08 09:21:13;;;;;;;11.30;9.63;;;;;;;14.05;70.30;100545.18;1763039;80;21081;-61
2023/04/08 09:23:46;;;;;;;12.55;8.83;;;;;;;14.10;69.77;100543.19;1749399;80;21747;-61
2023/04/08 09:26:18;;;;;;;10.95;9.35;;;;;;;14.22;69.86;100548.77;1759636;80;21052;-61
2023/04/08 09:29:06;;;;;;;11.15;9.45;;;;;;;14.27;69.79;100538.88;1761149;79;21023;-60
2023/04/08 09:31:37;;;;;;;11.75;9.68;;;;;;;14.46;69.98;100547.55;1764243;80;20986;-61
2023/04/08 09:34:12;;;;;;;12.28;9.30;;;;;;;14.76;69.93;100541.71;1764770;80;20993;-61
2023/04/08 09:36:38;;;;;;;12.88;9.38;;;;;;;14.97;69.80;100543.20;1764883;79;21014;-61
2023/04/08 09:39:06;;;;;;;11.63;9.65;;;;;;;15.23;69.98;100543.59;1763354;80;20973;-61
2023/04/08 09:41:37;;;;;;;14.15;10.45;;;;;;;15.60;70.09;100548.17;1761605;80;20928;-61
2023/04/08 09:44:06;;;;;;;13.98;9.53;;;;;;;16.07;70.20;100552.14;1766641;80;20976;-61
2023/04/08 09:46:48;;;;;;;12.15;10.25;;;;;;;16.60;69.76;100548.65;1762950;80;21065;-61
2023/04/08 09:49:24;;;;;;;13.30;10.10;;;;;;;16.98;69.25;100549.50;1767987;80;21060;-61
2023/04/08 09:51:59;;;;;;;15.97;11.57;;;;;;;17.63;68.63;100541.91;1762997;79;20958;-61
2023/04/08 09:54:32;;;;;;;11.48;9.45;;;;;;;17.63;68.63;100541.91;1761575;80;21446;-60
2023/04/08 09:57:03;;;;;;;15.35;10.90;;;;;;;18.10;69.13;100541.98;1746679;80;21085;-61
2023/04/08 09:59:35;;;;;;;18.42;11.22;;;;;;;18.60;69.14;100540.89;1758921;79;21739;-62
2023/04/08 10:02:08;;;;;;;20.17;12.43;;;;;;;19.26;69.51;100539.00;1764269;80;20990;-61
2023/04/08 10:04:40;;;;;;;15.60;11.05;;;;;;;20.10;69.12;100541.36;1759678;79;21081;-60
2023/04/08 10:07:08;;;;;;;17.70;11.65;;;;;;;20.91;68.94;100537.05;1761890;79;21019;-61
2023/04/08 10:09:37;;;;;;;17.10;12.13;;;;;;;21.54;68.00;100535.63;1768343;80;20927;-61
2023/04/08 10:12:09;;;;;;;16.93;12.25;;;;;;;22.08;67.76;100538.73;1762332;80;21011;-61
2023/04/08 10:14:36;;;;;;;19.55;13.43;;;;;;;22.68;68.25;100532.90;1762939;80;21071;-60
2023/04/08 10:17:27;;;;;;;19.95;14.25;;;;;;;23.52;67.69;100540.73;1747177;80;21652;-61
2023/04/08 10:19:53;;;;;;;19.23;13.22;;;;;;;23.88;66.31;100537.47;1766662;80;20999;-61
2023/04/08 10:22:36;;;;;;;20.68;14.33;;;;;;;24.04;65.44;100538.27;1759591;80;21118;-61
2023/04/08 10:25:30;;;;;;;15.53;12.90;;;;;;;24.26;65.58;100535.81;1762664;80;21015;-61
2023/04/08 10:27:59;;;;;;;18.85;12.82;;;;;;;24.06;63.62;100539.48;1761251;80;21567;-61
2023/04/08 10:30:34;;;;;;;15.28;13.20;;;;;;;22.76;63.14;100542.41;1764274;80;21498;-61
2023/04/08 10:33:05;;;;;;;16.45;14.03;;;;;;;22.60;63.75;100538.86;1762622;80;22216;-61
2023/04/08 10:35:40;;;;;;;16.32;13.28;;;;;;;22.44;63.53;100534.02;1762917;80;21010;-58
2023/04/08 10:38:03;;;;;;;14.68;13.15;;;;;;;22.38;62.62;100531.87;1757382;80;21045;-59
2023/04/08 10:40:40;;;;;;;19.52;14.47;;;;;;;22.40;62.93;100532.56;1764387;80;21450;-61
2023/04/08 10:43:07;;;;;;;16.05;13.58;;;;;;;22.32;61.97;100529.70;1762336;80;21002;-61
2023/04/08 10:45:34;;;;;;;;;;;;;;;22.28;62.19;100525.63;1763593;80;20942;-61
2023/04/08 10:48:23;;;;;;;16.48;13.08;;;;;;;22.89;61.93;100528.41;1763692;80;20091;-61
2023/04/08 10:50:55;;;;;;;16.00;12.45;;;;;;;24.62;64.00;100520.08;1759631;79;21475;-61
2023/04/08 10:53:33;;;;;;;20.88;13.15;;;;;;;26.73;63.07;100517.73;1759597;80;21053;-59
2023/04/08 10:56:07;;;;;;;15.43;12.40;;;;;;;28.61;62.31;100507.52;1763855;80;21073;-59
2023/04/08 10:58:35;;;;;;;16.25;12.30;;;;;;;30.00;60.83;100502.89;1764322;80;20967;-59
2023/04/08 11:01:07;;;;;;;14.87;11.25;;;;;;;30.60;59.91;100508.45;1760257;80;21049;-59
2023/04/08 11:03:35;;;;;;;14.10;11.30;;;;;;;31.77;57.78;100508.05;1757850;80;21055;-59
2023/04/08 11:06:02;;;;;;;15.23;11.33;;;;;;;32.42;58.08;100502.63;1763487;80;20986;-58
2023/04/08 11:08:29;;;;;;;16.02;11.30;;;;;;;33.53;57.55;100502.16;1760266;80;21002;-58
2023/04/08 11:10:57;;;;;;;14.10;10.60;;;;;;;34.35;57.60;100502.91;1758494;80;20968;-60
2023/04/08 11:13:25;;;;;;;14.07;10.78;;;;;;;35.27;56.07;100498.34;1758235;80;21031;-59
2023/04/08 11:15:52;;;;;;;11.75;10.10;;;;;;;35.64;54.53;100499.42;1762627;80;21008;-59
2023/04/08 11:18:21;;;;;;;12.05;9.70;;;;;;;36.22;54.39;100496.22;1764306;80;21019;-60
2023/04/08 11:20:50;;;;;;;11.63;9.23;;;;;;;37.24;53.16;100491.72;1762457;80;20986;-59
2023/04/08 11:23:19;;;;;;;10.72;9.63;;;;;;;38.29;51.93;100485.77;1760294;79;21004;-59
2023/04/08 11:26:03;;;;;;;;;;;;;;;;;;;;;